sensor_id;sensor_type;location;lat;lon;timestamp;temperature;humidity
15083;DHT22;7640;53.116;6.878;2022-07-23T00:01:30;16.50;99.90
15083;DHT22;7640;53.116;6.878;2022-07-23T00:03:59;16.40;99.90
15083;DHT22;7640;53.116;6.878;2022-07-23T00:06:27;16.40;99.90
15083;DHT22;7640;53.116;6.878;2022-07-23T00:08:56;16.40;99.90
15083;DHT22;7640;53.116;6.878;2022-07-23T00:11:25;16.40;99.90
15083;DHT22;7640;53.116;6.878;2022-07-23T00:13:53;16.40;99.90
15083;DHT22;7640;53.116;6.878;2022-07-23T00:16:22;16.40;99.90
15083;DHT22;7640;53.116;6.878;2022-07-23T00:18:51;16.40;99.90
15083;DHT22;7640;53.116;6.878;2022-07-23T00:21:19;16.40;99.90
15083;DHT22;7640;53.116;6.878;2022-07-23T00:23:47;16.40;99.90
15083;DHT22;7640;53.116;6.878;2022-07-23T00:26:17;16.30;99.90
15083;DHT22;7640;53.116;6.878;2022-07-23T00:28:45;16.30;99.90
15083;DHT22;7640;53.116;6.878;2022-07-23T00:31:13;16.30;99.90
15083;DHT22;7640;53.116;6.878;2022-07-23T00:33:42;16.30;99.90
15083;DHT22;7640;53.116;6.878;2022-07-23T00:36:10;16.20;99.90
15083;DHT22;7640;53.116;6.878;2022-07-23T00:38:38;16.20;99.90
15083;DHT22;7640;53.116;6.878;2022-07-23T00:41:06;16.20;99.90
15083;DHT22;7640;53.116;6.878;2022-07-23T00:43:36;16.10;99.90
15083;DHT22;7640;53.116;6.878;2022-07-23T00:46:05;16.10;99.90
15083;DHT22;7640;53.116;6.878;2022-07-23T00:48:33;16.00;99.90
15083;DHT22;7640;53.116;6.878;2022-07-23T00:51:01;16.00;99.90
15083;DHT22;7640;53.116;6.878;2022-07-23T00:53:30;15.90;99.90
15083;DHT22;7640;53.116;6.878;2022-07-23T00:55:58;15.90;99.90
15083;DHT22;7640;53.116;6.878;2022-07-23T00:58:26;15.80;99.90
15083;DHT22;7640;53.116;6.878;2022-07-23T01:00:56;15.80;99.90
15083;DHT22;7640;53.116;6.878;2022-07-23T01:03:24;15.70;99.90
15083;DHT22;7640;53.116;6.878;2022-07-23T01:05:53;15.70;99.90
15083;DHT22;7640;53.116;6.878;2022-07-23T01:08:21;15.60;99.90
15083;DHT22;7640;53.116;6.878;2022-07-23T01:10:50;15.50;99.90
15083;DHT22;7640;53.116;6.878;2022-07-23T01:13:19;15.50;99.90
15083;DHT22;7640;53.116;6.878;2022-07-23T01:15:47;15.40;99.90
15083;DHT22;7640;53.116;6.878;2022-07-23T01:18:17;15.40;99.90
15083;DHT22;7640;53.116;6.878;2022-07-23T01:20:45;15.40;99.90
15083;DHT22;7640;53.116;6.878;2022-07-23T01:23:14;15.30;99.90
15083;DHT22;7640;53.116;6.878;2022-07-23T01:25:48;15.30;99.90
15083;DHT22;7640;53.116;6.878;2022-07-23T01:28:16;15.30;99.90
15083;DHT22;7640;53.116;6.878;2022-07-23T01:30:45;15.30;99.90
15083;DHT22;7640;53.116;6.878;2022-07-23T01:33:13;15.20;99.90
15083;DHT22;7640;53.116;6.878;2022-07-23T01:35:42;15.20;99.90
15083;DHT22;7640;53.116;6.878;2022-07-23T01:38:10;15.20;99.90
15083;DHT22;7640;53.116;6.878;2022-07-23T01:40:40;15.20;99.90
15083;DHT22;7640;53.116;6.878;2022-07-23T01:43:08;15.20;99.90
15083;DHT22;7640;53.116;6.878;2022-07-23T01:45:37;15.20;99.90
15083;DHT22;7640;53.116;6.878;2022-07-23T01:48:06;15.20;99.90
15083;DHT22;7640;53.116;6.878;2022-07-23T01:50:36;15.50;99.90
15083;DHT22;7640;53.116;6.878;2022-07-23T01:53:05;15.40;99.90
15083;DHT22;7640;53.116;6.878;2022-07-23T01:55:35;15.30;99.90
15083;DHT22;7640;53.116;6.878;2022-07-23T01:58:04;15.30;99.90
15083;DHT22;7640;53.116;6.878;2022-07-23T02:00:33;15.30;99.90
15083;DHT22;7640;53.116;6.878;2022-07-23T02:03:01;15.20;99.90
15083;DHT22;7640;53.116;6.878;2022-07-23T02:05:30;15.20;99.90
15083;DHT22;7640;53.116;6.878;2022-07-23T02:08:00;15.20;99.90
15083;DHT22;7640;53.116;6.878;2022-07-23T02:10:28;15.10;99.90
15083;DHT22;7640;53.116;6.878;2022-07-23T02:12:56;15.10;99.90
15083;DHT22;7640;53.116;6.878;2022-07-23T02:15:26;15.10;99.90
15083;DHT22;7640;53.116;6.878;2022-07-23T02:17:55;15.00;99.90
15083;DHT22;7640;53.116;6.878;2022-07-23T02:20:23;15.00;99.90
15083;DHT22;7640;53.116;6.878;2022-07-23T02:22:52;15.00;99.90
15083;DHT22;7640;53.116;6.878;2022-07-23T02:25:20;14.90;99.90
15083;DHT22;7640;53.116;6.878;2022-07-23T02:27:48;14.90;99.90
15083;DHT22;7640;53.116;6.878;2022-07-23T02:30:16;14.80;99.90
15083;DHT22;7640;53.116;6.878;2022-07-23T02:32:45;14.90;99.90
15083;DHT22;7640;53.116;6.878;2022-07-23T02:35:14;14.80;99.90
15083;DHT22;7640;53.116;6.878;2022-07-23T02:37:42;14.80;99.90
15083;DHT22;7640;53.116;6.878;2022-07-23T02:40:10;14.70;99.90
15083;DHT22;7640;53.116;6.878;2022-07-23T02:42:39;14.70;99.90
15083;DHT22;7640;53.116;6.878;2022-07-23T02:45:08;14.70;99.90
15083;DHT22;7640;53.116;6.878;2022-07-23T02:47:36;14.60;99.90
15083;DHT22;7640;53.116;6.878;2022-07-23T02:50:07;14.60;99.90
15083;DHT22;7640;53.116;6.878;2022-07-23T02:52:36;14.50;99.90
15083;DHT22;7640;53.116;6.878;2022-07-23T02:55:05;14.50;99.90
15083;DHT22;7640;53.116;6.878;2022-07-23T02:57:34;14.50;99.90
15083;DHT22;7640;53.116;6.878;2022-07-23T03:00:03;14.40;99.90
15083;DHT22;7640;53.116;6.878;2022-07-23T03:02:32;14.40;99.90
15083;DHT22;7640;53.116;6.878;2022-07-23T03:05:00;14.40;99.90
15083;DHT22;7640;53.116;6.878;2022-07-23T03:07:33;14.40;99.90
15083;DHT22;7640;53.116;6.878;2022-07-23T03:10:01;14.30;99.90
15083;DHT22;7640;53.116;6.878;2022-07-23T03:12:29;14.30;99.90
15083;DHT22;7640;53.116;6.878;2022-07-23T03:14:57;14.30;99.90
15083;DHT22;7640;53.116;6.878;2022-07-23T03:17:25;14.20;99.90
15083;DHT22;7640;53.116;6.878;2022-07-23T03:19:54;14.20;99.90
15083;DHT22;7640;53.116;6.878;2022-07-23T03:22:22;14.20;99.90
15083;DHT22;7640;53.116;6.878;2022-07-23T03:24:51;14.10;99.90
15083;DHT22;7640;53.116;6.878;2022-07-23T03:27:23;14.10;99.90
15083;DHT22;7640;53.116;6.878;2022-07-23T03:29:53;14.10;99.90
15083;DHT22;7640;53.116;6.878;2022-07-23T03:32:22;14.10;99.90
15083;DHT22;7640;53.116;6.878;2022-07-23T03:34:51;14.10;99.90
15083;DHT22;7640;53.116;6.878;2022-07-23T03:37:21;14.00;99.90
15083;DHT22;7640;53.116;6.878;2022-07-23T03:39:50;14.00;99.90
15083;DHT22;7640;53.116;6.878;2022-07-23T03:42:18;14.00;99.90
15083;DHT22;7640;53.116;6.878;2022-07-23T03:44:46;14.00;99.90
15083;DHT22;7640;53.116;6.878;2022-07-23T03:47:15;14.00;99.90
15083;DHT22;7640;53.116;6.878;2022-07-23T03:49:43;14.10;99.90
15083;DHT22;7640;53.116;6.878;2022-07-23T03:52:11;14.10;99.90
15083;DHT22;7640;53.116;6.878;2022-07-23T03:54:40;14.20;99.90
15083;DHT22;7640;53.116;6.878;2022-07-23T03:57:09;14.20;99.90
15083;DHT22;7640;53.116;6.878;2022-07-23T03:59:37;14.20;99.90
15083;DHT22;7640;53.116;6.878;2022-07-23T04:02:05;14.30;99.90
15083;DHT22;7640;53.116;6.878;2022-07-23T04:04:34;14.30;99.90
15083;DHT22;7640;53.116;6.878;2022-07-23T04:07:02;14.30;99.90
15083;DHT22;7640;53.116;6.878;2022-07-23T04:09:31;14.40;99.90
15083;DHT22;7640;53.116;6.878;2022-07-23T04:11:59;14.40;99.90
15083;DHT22;7640;53.116;6.878;2022-07-23T04:14:29;14.50;99.90
15083;DHT22;7640;53.116;6.878;2022-07-23T04:16:57;14.50;99.90
15083;DHT22;7640;53.116;6.878;2022-07-23T04:19:25;14.60;99.90
15083;DHT22;7640;53.116;6.878;2022-07-23T04:21:54;14.60;99.90
15083;DHT22;7640;53.116;6.878;2022-07-23T04:24:22;14.70;99.90
15083;DHT22;7640;53.116;6.878;2022-07-23T04:26:50;14.70;99.90
15083;DHT22;7640;53.116;6.878;2022-07-23T04:29:18;14.70;99.90
15083;DHT22;7640;53.116;6.878;2022-07-23T04:31:48;14.70;99.90
15083;DHT22;7640;53.116;6.878;2022-07-23T04:34:16;14.80;99.90
15083;DHT22;7640;53.116;6.878;2022-07-23T04:36:44;14.70;99.90
15083;DHT22;7640;53.116;6.878;2022-07-23T04:39:12;14.80;99.90
15083;DHT22;7640;53.116;6.878;2022-07-23T04:41:40;14.80;99.90
15083;DHT22;7640;53.116;6.878;2022-07-23T04:44:08;14.90;99.90
15083;DHT22;7640;53.116;6.878;2022-07-23T04:46:37;14.90;99.90
15083;DHT22;7640;53.116;6.878;2022-07-23T04:49:06;14.90;99.90
15083;DHT22;7640;53.116;6.878;2022-07-23T04:51:34;15.00;99.90
15083;DHT22;7640;53.116;6.878;2022-07-23T04:54:03;15.00;99.90
15083;DHT22;7640;53.116;6.878;2022-07-23T04:56:31;15.10;99.90
15083;DHT22;7640;53.116;6.878;2022-07-23T04:59:00;15.10;99.90
15083;DHT22;7640;53.116;6.878;2022-07-23T05:01:29;15.10;99.90
15083;DHT22;7640;53.116;6.878;2022-07-23T05:03:57;15.20;99.90
15083;DHT22;7640;53.116;6.878;2022-07-23T05:06:27;15.20;99.90
15083;DHT22;7640;53.116;6.878;2022-07-23T05:08:55;15.20;99.90
15083;DHT22;7640;53.116;6.878;2022-07-23T05:11:23;15.30;99.90
15083;DHT22;7640;53.116;6.878;2022-07-23T05:13:53;15.30;99.90
15083;DHT22;7640;53.116;6.878;2022-07-23T05:16:21;15.30;99.90
15083;DHT22;7640;53.116;6.878;2022-07-23T05:18:50;15.30;99.90
15083;DHT22;7640;53.116;6.878;2022-07-23T05:21:18;15.40;99.90
15083;DHT22;7640;53.116;6.878;2022-07-23T05:23:47;15.40;99.90
15083;DHT22;7640;53.116;6.878;2022-07-23T05:26:15;15.40;99.90
15083;DHT22;7640;53.116;6.878;2022-07-23T05:28:44;15.50;99.90
15083;DHT22;7640;53.116;6.878;2022-07-23T05:31:16;15.60;99.90
15083;DHT22;7640;53.116;6.878;2022-07-23T05:33:44;15.60;99.90
15083;DHT22;7640;53.116;6.878;2022-07-23T05:36:12;15.70;99.90
15083;DHT22;7640;53.116;6.878;2022-07-23T05:38:40;15.80;99.90
15083;DHT22;7640;53.116;6.878;2022-07-23T05:41:11;15.90;99.90
15083;DHT22;7640;53.116;6.878;2022-07-23T05:43:39;16.00;99.90
15083;DHT22;7640;53.116;6.878;2022-07-23T05:46:07;16.10;99.90
15083;DHT22;7640;53.116;6.878;2022-07-23T05:48:36;16.20;99.90
15083;DHT22;7640;53.116;6.878;2022-07-23T05:51:04;16.30;99.90
15083;DHT22;7640;53.116;6.878;2022-07-23T05:53:33;16.40;99.90
15083;DHT22;7640;53.116;6.878;2022-07-23T05:56:02;16.50;99.90
15083;DHT22;7640;53.116;6.878;2022-07-23T05:58:31;16.50;99.90
15083;DHT22;7640;53.116;6.878;2022-07-23T06:01:00;16.60;99.90
15083;DHT22;7640;53.116;6.878;2022-07-23T06:03:28;16.60;99.90
15083;DHT22;7640;53.116;6.878;2022-07-23T06:05:56;16.70;99.90
15083;DHT22;7640;53.116;6.878;2022-07-23T06:08:25;16.70;99.90
15083;DHT22;7640;53.116;6.878;2022-07-23T06:10:53;16.80;99.90
15083;DHT22;7640;53.116;6.878;2022-07-23T06:13:21;16.80;99.90
15083;DHT22;7640;53.116;6.878;2022-07-23T06:15:51;16.90;99.90
15083;DHT22;7640;53.116;6.878;2022-07-23T06:18:19;16.90;99.90
15083;DHT22;7640;53.116;6.878;2022-07-23T06:20:47;17.00;99.90
15083;DHT22;7640;53.116;6.878;2022-07-23T06:23:18;17.10;99.90
15083;DHT22;7640;53.116;6.878;2022-07-23T06:25:46;17.10;99.90
15083;DHT22;7640;53.116;6.878;2022-07-23T06:28:14;17.10;99.90
15083;DHT22;7640;53.116;6.878;2022-07-23T06:30:42;17.10;99.90
15083;DHT22;7640;53.116;6.878;2022-07-23T06:33:12;17.10;99.90
15083;DHT22;7640;53.116;6.878;2022-07-23T06:35:40;17.20;99.90
15083;DHT22;7640;53.116;6.878;2022-07-23T06:38:08;17.20;99.90
15083;DHT22;7640;53.116;6.878;2022-07-23T06:40:37;17.40;99.90
15083;DHT22;7640;53.116;6.878;2022-07-23T06:43:05;17.50;99.90
15083;DHT22;7640;53.116;6.878;2022-07-23T06:45:34;17.60;99.90
15083;DHT22;7640;53.116;6.878;2022-07-23T06:48:02;17.80;99.90
15083;DHT22;7640;53.116;6.878;2022-07-23T06:50:32;17.90;99.90
15083;DHT22;7640;53.116;6.878;2022-07-23T06:53:00;18.00;99.90
15083;DHT22;7640;53.116;6.878;2022-07-23T06:55:28;18.10;99.90
15083;DHT22;7640;53.116;6.878;2022-07-23T06:57:58;18.20;99.90
15083;DHT22;7640;53.116;6.878;2022-07-23T07:00:26;18.30;99.90
15083;DHT22;7640;53.116;6.878;2022-07-23T07:02:54;18.50;99.90
15083;DHT22;7640;53.116;6.878;2022-07-23T07:05:24;18.60;99.90
15083;DHT22;7640;53.116;6.878;2022-07-23T07:07:55;18.60;99.90
15083;DHT22;7640;53.116;6.878;2022-07-23T07:10:24;18.70;99.90
15083;DHT22;7640;53.116;6.878;2022-07-23T07:12:52;18.90;99.90
15083;DHT22;7640;53.116;6.878;2022-07-23T07:15:20;18.90;99.90
15083;DHT22;7640;53.116;6.878;2022-07-23T07:17:48;19.00;99.90
15083;DHT22;7640;53.116;6.878;2022-07-23T07:20:17;19.10;99.90
15083;DHT22;7640;53.116;6.878;2022-07-23T07:22:45;19.20;99.90
15083;DHT22;7640;53.116;6.878;2022-07-23T07:25:15;19.30;99.90
15083;DHT22;7640;53.116;6.878;2022-07-23T07:27:43;19.30;99.90
15083;DHT22;7640;53.116;6.878;2022-07-23T07:30:12;19.40;99.90
15083;DHT22;7640;53.116;6.878;2022-07-23T07:32:40;19.50;99.90
15083;DHT22;7640;53.116;6.878;2022-07-23T07:35:25;19.70;99.90
15083;DHT22;7640;53.116;6.878;2022-07-23T07:37:54;19.70;99.90
15083;DHT22;7640;53.116;6.878;2022-07-23T07:40:23;19.90;99.90
15083;DHT22;7640;53.116;6.878;2022-07-23T07:42:59;20.00;99.90
15083;DHT22;7640;53.116;6.878;2022-07-23T07:45:28;20.00;99.90
15083;DHT22;7640;53.116;6.878;2022-07-23T07:47:57;20.10;99.90
15083;DHT22;7640;53.116;6.878;2022-07-23T07:50:25;20.20;99.90
15083;DHT22;7640;53.116;6.878;2022-07-23T07:52:53;20.20;99.90
15083;DHT22;7640;53.116;6.878;2022-07-23T07:55:23;20.30;99.90
15083;DHT22;7640;53.116;6.878;2022-07-23T07:57:51;20.30;99.90
15083;DHT22;7640;53.116;6.878;2022-07-23T08:00:19;20.30;99.90
15083;DHT22;7640;53.116;6.878;2022-07-23T08:02:50;20.20;99.90
15083;DHT22;7640;53.116;6.878;2022-07-23T08:05:25;20.30;99.90
15083;DHT22;7640;53.116;6.878;2022-07-23T08:07:55;20.20;99.90
15083;DHT22;7640;53.116;6.878;2022-07-23T08:10:26;20.20;99.90
15083;DHT22;7640;53.116;6.878;2022-07-23T08:12:56;20.30;99.90
15083;DHT22;7640;53.116;6.878;2022-07-23T08:15:26;20.40;99.90
15083;DHT22;7640;53.116;6.878;2022-07-23T08:17:55;20.50;99.90
15083;DHT22;7640;53.116;6.878;2022-07-23T08:20:24;20.60;99.90
15083;DHT22;7640;53.116;6.878;2022-07-23T08:22:57;20.70;99.90
15083;DHT22;7640;53.116;6.878;2022-07-23T08:25:30;20.80;99.90
15083;DHT22;7640;53.116;6.878;2022-07-23T08:27:59;20.90;99.90
15083;DHT22;7640;53.116;6.878;2022-07-23T08:30:29;21.00;99.90
15083;DHT22;7640;53.116;6.878;2022-07-23T08:32:59;21.10;99.90
15083;DHT22;7640;53.116;6.878;2022-07-23T08:35:29;21.20;99.90
15083;DHT22;7640;53.116;6.878;2022-07-23T08:38:00;21.30;99.90
15083;DHT22;7640;53.116;6.878;2022-07-23T08:40:32;21.50;99.90
15083;DHT22;7640;53.116;6.878;2022-07-23T08:43:09;21.60;99.90
15083;DHT22;7640;53.116;6.878;2022-07-23T08:45:39;21.60;99.90
15083;DHT22;7640;53.116;6.878;2022-07-23T08:48:14;21.70;99.90
15083;DHT22;7640;53.116;6.878;2022-07-23T08:50:44;21.70;99.90
15083;DHT22;7640;53.116;6.878;2022-07-23T08:53:15;21.60;99.90
15083;DHT22;7640;53.116;6.878;2022-07-23T08:55:45;21.60;99.90
15083;DHT22;7640;53.116;6.878;2022-07-23T08:58:15;21.90;99.90
15083;DHT22;7640;53.116;6.878;2022-07-23T09:00:45;21.70;99.90
15083;DHT22;7640;53.116;6.878;2022-07-23T09:03:16;21.80;99.90
15083;DHT22;7640;53.116;6.878;2022-07-23T09:05:45;21.90;99.90
15083;DHT22;7640;53.116;6.878;2022-07-23T09:08:15;21.90;99.90
15083;DHT22;7640;53.116;6.878;2022-07-23T09:10:50;21.90;99.90
15083;DHT22;7640;53.116;6.878;2022-07-23T09:13:29;22.00;99.90
15083;DHT22;7640;53.116;6.878;2022-07-23T09:16:01;22.10;99.90
15083;DHT22;7640;53.116;6.878;2022-07-23T09:18:37;22.30;99.90
15083;DHT22;7640;53.116;6.878;2022-07-23T09:21:17;22.10;99.90
15083;DHT22;7640;53.116;6.878;2022-07-23T09:23:50;22.10;99.90
15083;DHT22;7640;53.116;6.878;2022-07-23T09:29:06;22.20;99.90
15083;DHT22;7640;53.116;6.878;2022-07-23T09:31:48;22.20;99.90
15083;DHT22;7640;53.116;6.878;2022-07-23T09:34:20;22.30;99.90
15083;DHT22;7640;53.116;6.878;2022-07-23T09:36:51;22.20;99.90
15083;DHT22;7640;53.116;6.878;2022-07-23T09:39:28;22.20;99.90
15083;DHT22;7640;53.116;6.878;2022-07-23T09:42:13;22.10;99.90
15083;DHT22;7640;53.116;6.878;2022-07-23T09:44:43;22.20;99.90
15083;DHT22;7640;53.116;6.878;2022-07-23T09:47:12;22.30;99.90
15083;DHT22;7640;53.116;6.878;2022-07-23T09:49:41;22.50;99.90
15083;DHT22;7640;53.116;6.878;2022-07-23T09:52:26;22.80;99.90
15083;DHT22;7640;53.116;6.878;2022-07-23T09:55:03;23.00;99.90
15083;DHT22;7640;53.116;6.878;2022-07-23T09:57:35;23.10;99.90
15083;DHT22;7640;53.116;6.878;2022-07-23T10:00:07;23.10;99.90
15083;DHT22;7640;53.116;6.878;2022-07-23T10:02:37;23.10;99.90
15083;DHT22;7640;53.116;6.878;2022-07-23T10:05:07;23.20;99.90
15083;DHT22;7640;53.116;6.878;2022-07-23T10:07:39;23.40;99.90
15083;DHT22;7640;53.116;6.878;2022-07-23T10:10:09;23.40;99.90
15083;DHT22;7640;53.116;6.878;2022-07-23T10:12:41;23.60;99.90
15083;DHT22;7640;53.116;6.878;2022-07-23T10:15:35;23.60;99.90
15083;DHT22;7640;53.116;6.878;2022-07-23T10:18:04;23.70;99.90
15083;DHT22;7640;53.116;6.878;2022-07-23T10:20:32;23.70;99.90
15083;DHT22;7640;53.116;6.878;2022-07-23T10:23:07;23.70;99.90
15083;DHT22;7640;53.116;6.878;2022-07-23T10:25:44;23.70;99.90
15083;DHT22;7640;53.116;6.878;2022-07-23T10:28:45;23.60;99.90
15083;DHT22;7640;53.116;6.878;2022-07-23T10:31:35;23.60;99.90
15083;DHT22;7640;53.116;6.878;2022-07-23T10:34:33;23.60;99.90
15083;DHT22;7640;53.116;6.878;2022-07-23T10:37:13;23.60;99.90
15083;DHT22;7640;53.116;6.878;2022-07-23T10:39:47;23.60;99.90
15083;DHT22;7640;53.116;6.878;2022-07-23T10:42:17;23.60;99.90
15083;DHT22;7640;53.116;6.878;2022-07-23T10:44:47;23.60;99.90
15083;DHT22;7640;53.116;6.878;2022-07-23T10:47:24;23.70;99.90
15083;DHT22;7640;53.116;6.878;2022-07-23T10:50:24;23.70;99.90
15083;DHT22;7640;53.116;6.878;2022-07-23T10:53:15;23.70;99.90
15083;DHT22;7640;53.116;6.878;2022-07-23T10:55:53;23.80;99.90
15083;DHT22;7640;53.116;6.878;2022-07-23T10:58:46;23.90;99.90
15083;DHT22;7640;53.116;6.878;2022-07-23T11:01:33;24.00;99.90
15083;DHT22;7640;53.116;6.878;2022-07-23T11:04:04;24.10;99.90
15083;DHT22;7640;53.116;6.878;2022-07-23T11:09:48;24.40;99.90
15083;DHT22;7640;53.116;6.878;2022-07-23T11:12:35;24.00;99.90
15083;DHT22;7640;53.116;6.878;2022-07-23T11:15:08;24.00;99.90
15083;DHT22;7640;53.116;6.878;2022-07-23T11:17:58;24.00;99.90
15083;DHT22;7640;53.116;6.878;2022-07-23T11:20:27;24.10;99.90
15083;DHT22;7640;53.116;6.878;2022-07-23T11:22:56;24.10;99.90
15083;DHT22;7640;53.116;6.878;2022-07-23T11:25:32;24.20;99.90
15083;DHT22;7640;53.116;6.878;2022-07-23T11:28:14;24.20;99.90
15083;DHT22;7640;53.116;6.878;2022-07-23T11:30:44;24.30;99.90
15083;DHT22;7640;53.116;6.878;2022-07-23T11:33:20;24.40;99.90
15083;DHT22;7640;53.116;6.878;2022-07-23T11:36:00;24.60;99.90
15083;DHT22;7640;53.116;6.878;2022-07-23T11:38:31;24.60;99.90
15083;DHT22;7640;53.116;6.878;2022-07-23T11:41:00;24.70;99.90
15083;DHT22;7640;53.116;6.878;2022-07-23T11:43:28;24.60;99.90
15083;DHT22;7640;53.116;6.878;2022-07-23T11:45:58;24.60;99.90
15083;DHT22;7640;53.116;6.878;2022-07-23T11:48:30;24.60;99.90
15083;DHT22;7640;53.116;6.878;2022-07-23T11:51:06;24.60;99.90
15083;DHT22;7640;53.116;6.878;2022-07-23T11:53:35;24.60;99.90
15083;DHT22;7640;53.116;6.878;2022-07-23T11:56:04;24.70;99.90
15083;DHT22;7640;53.116;6.878;2022-07-23T11:58:34;24.80;99.90
15083;DHT22;7640;53.116;6.878;2022-07-23T12:01:03;24.80;99.90
15083;DHT22;7640;53.116;6.878;2022-07-23T12:03:33;25.00;99.90
15083;DHT22;7640;53.116;6.878;2022-07-23T12:06:01;25.10;99.90
15083;DHT22;7640;53.116;6.878;2022-07-23T12:08:30;25.20;99.90
15083;DHT22;7640;53.116;6.878;2022-07-23T12:10:58;25.20;99.90
15083;DHT22;7640;53.116;6.878;2022-07-23T12:13:26;25.10;99.90
15083;DHT22;7640;53.116;6.878;2022-07-23T12:15:57;25.20;99.90
15083;DHT22;7640;53.116;6.878;2022-07-23T12:18:26;25.20;99.90
15083;DHT22;7640;53.116;6.878;2022-07-23T12:20:57;25.30;99.90
15083;DHT22;7640;53.116;6.878;2022-07-23T12:23:31;25.50;99.90
15083;DHT22;7640;53.116;6.878;2022-07-23T12:26:01;25.70;99.90
15083;DHT22;7640;53.116;6.878;2022-07-23T12:28:31;25.90;99.90
15083;DHT22;7640;53.116;6.878;2022-07-23T12:31:02;26.10;99.90
15083;DHT22;7640;53.116;6.878;2022-07-23T12:33:31;26.30;99.90
15083;DHT22;7640;53.116;6.878;2022-07-23T12:36:04;26.50;99.90
15083;DHT22;7640;53.116;6.878;2022-07-23T12:38:37;26.60;99.90
15083;DHT22;7640;53.116;6.878;2022-07-23T12:41:07;26.70;99.90
15083;DHT22;7640;53.116;6.878;2022-07-23T12:43:37;26.70;99.90
15083;DHT22;7640;53.116;6.878;2022-07-23T12:46:08;26.80;99.90
15083;DHT22;7640;53.116;6.878;2022-07-23T12:48:39;27.00;99.90
15083;DHT22;7640;53.116;6.878;2022-07-23T12:51:22;26.90;99.90
15083;DHT22;7640;53.116;6.878;2022-07-23T12:53:53;26.80;99.90
15083;DHT22;7640;53.116;6.878;2022-07-23T12:56:27;26.80;99.90
15083;DHT22;7640;53.116;6.878;2022-07-23T12:58:57;26.70;99.90
15083;DHT22;7640;53.116;6.878;2022-07-23T13:01:29;26.80;99.90
15083;DHT22;7640;53.116;6.878;2022-07-23T13:04:02;27.10;99.90
15083;DHT22;7640;53.116;6.878;2022-07-23T13:06:42;27.50;99.90
15083;DHT22;7640;53.116;6.878;2022-07-23T13:09:13;27.90;99.90
15083;DHT22;7640;53.116;6.878;2022-07-23T13:11:44;28.00;99.60
15083;DHT22;7640;53.116;6.878;2022-07-23T13:14:14;28.00;99.70
15083;DHT22;7640;53.116;6.878;2022-07-23T13:16:43;28.00;99.10
15083;DHT22;7640;53.116;6.878;2022-07-23T13:19:15;27.90;98.80
15083;DHT22;7640;53.116;6.878;2022-07-23T13:21:46;27.80;98.60
15083;DHT22;7640;53.116;6.878;2022-07-23T13:24:14;27.80;98.40
15083;DHT22;7640;53.116;6.878;2022-07-23T13:26:43;27.60;98.50
15083;DHT22;7640;53.116;6.878;2022-07-23T13:29:13;27.60;98.70
15083;DHT22;7640;53.116;6.878;2022-07-23T13:31:45;27.50;98.60
15083;DHT22;7640;53.116;6.878;2022-07-23T13:34:14;27.50;98.90
15083;DHT22;7640;53.116;6.878;2022-07-23T13:36:42;27.90;99.70
15083;DHT22;7640;53.116;6.878;2022-07-23T13:39:13;28.50;99.90
15083;DHT22;7640;53.116;6.878;2022-07-23T13:41:41;29.10;99.60
15083;DHT22;7640;53.116;6.878;2022-07-23T13:44:16;29.70;99.00
15083;DHT22;7640;53.116;6.878;2022-07-23T13:46:46;30.40;97.50
15083;DHT22;7640;53.116;6.878;2022-07-23T13:49:14;31.00;96.60
15083;DHT22;7640;53.116;6.878;2022-07-23T13:51:42;31.40;95.40
15083;DHT22;7640;53.116;6.878;2022-07-23T13:54:10;31.50;94.30
15083;DHT22;7640;53.116;6.878;2022-07-23T13:56:40;31.40;93.70
15083;DHT22;7640;53.116;6.878;2022-07-23T13:59:08;31.40;94.20
15083;DHT22;7640;53.116;6.878;2022-07-23T14:01:37;31.70;93.90
15083;DHT22;7640;53.116;6.878;2022-07-23T14:04:26;32.10;93.90
15083;DHT22;7640;53.116;6.878;2022-07-23T14:06:54;32.60;92.60
15083;DHT22;7640;53.116;6.878;2022-07-23T14:09:23;32.90;91.60
15083;DHT22;7640;53.116;6.878;2022-07-23T14:11:52;33.00;90.80
15083;DHT22;7640;53.116;6.878;2022-07-23T14:14:21;33.10;90.20
15083;DHT22;7640;53.116;6.878;2022-07-23T14:16:49;32.90;89.40
15083;DHT22;7640;53.116;6.878;2022-07-23T14:19:17;32.60;88.80
15083;DHT22;7640;53.116;6.878;2022-07-23T14:21:45;32.50;89.40
15083;DHT22;7640;53.116;6.878;2022-07-23T14:24:16;32.50;89.70
15083;DHT22;7640;53.116;6.878;2022-07-23T14:26:45;32.60;90.10
15083;DHT22;7640;53.116;6.878;2022-07-23T14:29:14;32.50;88.50
15083;DHT22;7640;53.116;6.878;2022-07-23T14:31:42;32.20;89.10
15083;DHT22;7640;53.116;6.878;2022-07-23T14:34:13;32.00;88.60
15083;DHT22;7640;53.116;6.878;2022-07-23T14:36:41;31.70;88.40
15083;DHT22;7640;53.116;6.878;2022-07-23T14:39:10;31.60;89.70
15083;DHT22;7640;53.116;6.878;2022-07-23T14:41:38;31.60;90.30
15083;DHT22;7640;53.116;6.878;2022-07-23T14:44:08;31.70;89.40
15083;DHT22;7640;53.116;6.878;2022-07-23T14:46:37;31.90;89.70
15083;DHT22;7640;53.116;6.878;2022-07-23T14:49:06;32.10;89.20
15083;DHT22;7640;53.116;6.878;2022-07-23T14:51:35;32.60;89.20
15083;DHT22;7640;53.116;6.878;2022-07-23T14:54:04;33.10;87.30
15083;DHT22;7640;53.116;6.878;2022-07-23T14:56:32;33.20;85.80
15083;DHT22;7640;53.116;6.878;2022-07-23T14:59:03;33.00;85.10
15083;DHT22;7640;53.116;6.878;2022-07-23T15:01:34;32.90;86.30
15083;DHT22;7640;53.116;6.878;2022-07-23T15:04:03;33.00;86.40
15083;DHT22;7640;53.116;6.878;2022-07-23T15:06:52;33.60;85.70
15083;DHT22;7640;53.116;6.878;2022-07-23T15:09:20;34.40;85.00
15083;DHT22;7640;53.116;6.878;2022-07-23T15:11:49;35.20;82.90
15083;DHT22;7640;53.116;6.878;2022-07-23T15:14:17;35.70;80.40
15083;DHT22;7640;53.116;6.878;2022-07-23T15:16:56;36.20;78.90
15083;DHT22;7640;53.116;6.878;2022-07-23T15:19:25;36.50;77.40
15083;DHT22;7640;53.116;6.878;2022-07-23T15:21:56;36.60;76.40
15083;DHT22;7640;53.116;6.878;2022-07-23T15:24:27;36.30;74.70
15083;DHT22;7640;53.116;6.878;2022-07-23T15:26:56;35.70;74.70
15083;DHT22;7640;53.116;6.878;2022-07-23T15:29:24;34.90;76.30
15083;DHT22;7640;53.116;6.878;2022-07-23T15:31:56;34.40;77.90
15083;DHT22;7640;53.116;6.878;2022-07-23T15:34:25;34.40;77.90
15083;DHT22;7640;53.116;6.878;2022-07-23T15:36:53;34.60;78.10
15083;DHT22;7640;53.116;6.878;2022-07-23T15:39:21;34.50;77.30
15083;DHT22;7640;53.116;6.878;2022-07-23T15:41:49;35.10;76.10
15083;DHT22;7640;53.116;6.878;2022-07-23T15:44:17;34.80;75.90
15083;DHT22;7640;53.116;6.878;2022-07-23T15:46:57;34.30;76.40
15083;DHT22;7640;53.116;6.878;2022-07-23T15:49:26;33.90;77.60
15083;DHT22;7640;53.116;6.878;2022-07-23T15:51:54;33.40;78.00
15083;DHT22;7640;53.116;6.878;2022-07-23T15:54:23;33.00;78.50
15083;DHT22;7640;53.116;6.878;2022-07-23T15:56:52;32.50;79.30
15083;DHT22;7640;53.116;6.878;2022-07-23T15:59:21;31.80;81.00
15083;DHT22;7640;53.116;6.878;2022-07-23T16:01:57;31.40;82.20
15083;DHT22;7640;53.116;6.878;2022-07-23T16:04:26;31.00;83.20
15083;DHT22;7640;53.116;6.878;2022-07-23T16:06:54;30.70;84.00
15083;DHT22;7640;53.116;6.878;2022-07-23T16:09:25;30.60;85.00
15083;DHT22;7640;53.116;6.878;2022-07-23T16:11:53;31.00;86.20